Latest Weather Observations for Coonawarra

IDS60801

Issued at 5:31 pm CST Friday 30 September 2016 (issued every 30 minutes, with the page automatically refreshed every 10 minutes)

About weather observations | Map of weather stations | Latest weather observations for SA | Other Formats
Station Details ID: 026091 Name: COONAWARRA Lat: -37.29 Lon: 140.83 Height: 57.0 m
Data from the previous 72 hours. | See also: Recent months at Coonawarra
Date/Time
CST
Temp
°C
App
Temp
°C
Dew
Point
°C
Rel
Hum
%
Delta-T
°C
Wind Press
QNH
hPa
Press
MSL
hPa
Rain since
9am
mm
Dir  Spd
km/h
Gust
km/h
Spd
kts
Gust
kts
30/05:30pm 12.4 8.3 11.5 94 0.5 WSW 24 32 13 17 998.6 998.6 3.8
30/05:00pm 12.6 8.5 11.5 93 0.6 WSW 24 35 13 19 998.2 998.2 3.8
30/04:30pm 13.1 8.3 11.6 91 0.8 SW 28 44 15 24 997.8 997.8 3.2
30/04:00pm 13.2 9.7 12.1 93 0.6 SW 22 32 12 17 997.4 997.4 3.2
30/03:30pm 12.9 8.9 11.8 93 0.6 SW 24 35 13 19 997.1 997.1 3.2
30/03:00pm 14.4 9.5 11.4 82 1.6 WSW 28 37 15 20 996.9 996.9 2.6
30/02:30pm 14.4 9.4 10.8 79 1.9 WSW 28 35 15 19 996.7 996.7 2.6
30/02:00pm 15.8 10.6 10.4 70 2.9 WSW 28 41 15 22 996.3 996.3 2.4
30/01:30pm 16.4 10.5 10.4 67 3.2 WSW 32 44 17 24 995.7 995.7 2.4
30/01:00pm 15.7 10.2 10.7 72 2.7 SW 30 39 16 21 995.3 995.3 2.4
30/12:30pm 15.0 12.3 11.7 80 1.8 SW 17 30 9 16 995.1 995.1 2.4
30/12:00pm 13.1 11.0 11.2 88 1.0 S 13 20 7 11 994.7 994.7 2.0
30/11:30am 13.0 10.5 11.1 88 1.0 SSW 15 20 8 11 994.3 994.3 2.0
30/11:00am 12.2 11.3 11.3 94 0.5 W 7 13 4 7 994.0 994.0 2.0
30/10:30am 10.7 8.3 10.1 96 0.3 NNE 13 15 7 8 993.9 993.9 1.8
30/10:00am 10.1 6.7 9.3 95 0.4 NE 17 22 9 12 993.6 993.6 1.4
30/09:30am 9.6 6.6 9.2 97 0.2 NE 15 20 8 11 993.7 993.7 0.6
30/09:00am 9.2 5.7 8.8 97 0.2 NNE 17 24 9 13 993.5 993.5 8.4
30/08:30am 9.0 5.4 8.4 96 0.3 NNE 17 22 9 12 993.9 993.9 7.4
30/08:00am 8.7 5.8 8.1 96 0.3 NNE 13 17 7 9 994.2 994.2 5.6
30/07:30am 8.4 5.8 7.8 96 0.3 N 11 13 6 7 994.5 994.5 4.8
30/07:00am 8.6 6.4 8.0 96 0.3 NW 9 11 5 6 994.4 994.4 4.0
30/06:30am 8.6 7.4 8.0 96 0.3 WSW 4 9 2 5 994.3 994.3 2.8
30/06:00am 8.7 5.0 7.9 95 0.4 SW 17 20 9 11 994.2 994.2 2.0
30/05:30am 8.3 4.9 7.5 95 0.4 WSW 15 24 8 13 993.9 993.9 1.6
30/05:00am 6.2 3.1 5.5 95 0.3 WNW 11 15 6 8 993.4 993.4 1.4
30/04:30am 5.7 2.9 5.2 97 0.2 WNW 9 9 5 5 993.1 993.1 1.4
30/04:00am 6.2 3.5 5.5 95 0.3 W 9 11 5 6 992.9 992.9 1.4
30/03:30am 6.3 3.6 5.6 95 0.3 W 9 11 5 6 992.8 992.8 1.4
30/03:00am 7.1 4.5 6.2 94 0.4 SW 9 13 5 7 992.2 992.2 1.4
30/02:30am 6.9 3.5 6.0 94 0.4 SW 13 15 7 8 992.2 992.2 1.4
30/02:00am 6.1 2.6 5.4 95 0.3 SW 13 15 7 8 991.8 991.8 1.4
30/01:30am 6.5 3.5 5.8 95 0.3 SW 11 13 6 7 991.7 991.7 1.4
30/01:00am 7.1 3.7 6.0 93 0.5 SW 13 17 7 9 991.6 991.6 1.4
30/12:30am 7.7 4.0 6.2 90 0.7 SSW 15 19 8 10 991.4 991.4 1.4
30/12:00am 7.6 3.9 6.1 90 0.7 SSW 15 19 8 10 991.1 991.1 1.4
 
Date/Time
CST
Temp
°C
App
Temp
°C
Dew
Point
°C
Rel
Hum
%
Delta-T
°C
Wind Press
QNH
hPa
Press
MSL
hPa
Rain since
9am
mm
Dir  Spd
km/h
Gust
km/h
Spd
kts
Gust
kts
29/11:30pm 7.7 4.4 6.4 91 0.6 SSW 13 17 7 9 990.9 990.9 1.2
29/11:00pm 7.9 3.9 6.6 91 0.6 SSW 17 22 9 12 990.6 990.6 1.2
29/10:30pm 6.8 3.4 5.9 94 0.4 SSW 13 15 7 8 990.5 990.5 1.2
29/10:00pm 6.5 3.4 5.6 94 0.4 SW 11 13 6 7 990.2 990.2 1.2
29/09:30pm 7.1 4.1 6.0 93 0.5 SSW 11 13 6 7 990.0 990.0 1.2
29/09:00pm 7.7 5.6 6.6 93 0.5 S 7 9 4 5 989.7 989.7 1.2
29/08:30pm 7.9 5.5 7.1 95 0.4 S 9 9 5 5 989.5 989.5 1.2
29/08:00pm 8.4 6.1 7.6 95 0.4 SSW 9 11 5 6 989.3 989.3 1.2
29/07:30pm 9.0 7.4 7.8 92 0.6 SSW 6 7 3 4 988.8 988.8 1.2
29/07:00pm 9.7 7.9 8.1 90 0.8 SSE 7 9 4 5 988.2 988.2 1.2
29/06:30pm 10.4 10.0 8.2 86 1.1 CALM 0 0 0 0 987.6 987.6 1.2
29/06:00pm 10.7 9.5 8.1 84 1.3 ENE 4 6 2 3 987.0 987.0 1.0
29/05:30pm 11.0 8.8 8.0 82 1.5 ESE 9 15 5 8 986.5 986.5 1.0
29/05:00pm 11.5 8.7 7.0 74 2.2 ESE 11 19 6 10 985.9 985.9 1.0
29/04:30pm 13.2 10.9 4.6 56 4.0 SW 6 9 3 5 985.3 985.3 1.0
29/04:00pm 13.1 11.1 4.5 56 3.9 ESE 4 7 2 4 985.1 985.1 1.0
29/03:30pm 12.7 10.0 5.5 61 3.4 E 9 11 5 6 984.8 984.8 0.8
29/03:00pm 12.7 9.0 4.5 57 3.8 N 13 19 7 10 984.6 984.6 0.8
29/02:30pm 12.6 9.0 6.6 67 2.9 NE 15 24 8 13 984.6 984.6 0.8
29/02:00pm 12.7 8.6 6.3 65 3.0 NNE 17 20 9 11 984.5 984.5 0.8
29/01:30pm 10.9 6.3 6.7 75 2.0 NNE 20 26 11 14 984.6 984.6 0.8
29/01:00pm 9.8 4.4 8.0 88 0.9 NNE 26 39 14 21 984.8 984.8 0.8
29/12:30pm 11.6 7.3 8.0 78 1.8 NNE 20 33 11 18 984.9 984.9 0.6
29/12:00pm 10.3 6.8 8.7 90 0.8 NE 17 26 9 14 985.2 985.2 0.6
29/11:30am 10.5 6.0 7.0 79 1.7 NE 20 32 11 17 985.4 985.4 0.0
29/11:00am 10.5 5.7 7.4 81 1.5 NE 22 33 12 18 985.2 985.2 0.0
29/10:30am 10.1 4.8 6.8 80 1.6 NE 24 35 13 19 985.4 985.4 0.0
29/10:00am 9.9 4.2 6.5 79 1.6 NE 26 35 14 19 985.2 985.2 0.0
29/09:30am 9.1 4.2 6.8 85 1.1 NE 22 35 12 19 985.4 985.4 0.0
29/09:00am 8.7 2.4 5.9 82 1.3 NNE 28 39 15 21 985.5 985.5 9.8
29/08:30am 8.8 2.3 4.8 76 1.8 NNE 28 39 15 21 985.5 985.5 9.6
29/08:00am 8.9 3.0 5.7 80 1.5 NNE 26 37 14 20 985.8 985.8 9.6
29/07:30am 8.4 2.8 5.3 81 1.4 NNE 24 33 13 18 985.9 985.9 9.6
29/07:00am 8.0 3.2 5.4 84 1.2 NE 20 30 11 16 985.8 985.8 9.6
29/06:30am 7.4 3.1 5.4 87 0.9 NNE 17 20 9 11 985.8 985.8 9.6
29/06:00am 7.1 2.3 4.9 86 1.0 N 19 24 10 13 985.7 985.7 9.6
29/05:30am 7.5 2.3 5.3 86 1.0 N 22 30 12 16 985.6 985.6 9.6
29/05:00am 7.7 3.0 6.0 89 0.8 N 20 30 11 16 985.5 985.5 9.6
29/04:30am 8.2 4.2 6.5 89 0.8 N 17 26 9 14 985.6 985.6 9.6
29/04:00am 8.3 4.8 7.3 93 0.5 N 15 22 8 12 985.6 985.6 9.6
29/03:30am 8.5 5.4 7.2 91 0.6 NNW 13 17 7 9 985.7 985.7 9.6
29/03:00am 8.5 3.2 7.0 90 0.7 NNW 24 37 13 20 985.7 985.7 8.8
29/02:30am 7.8 3.2 5.6 86 1.0 N 19 24 10 13 985.7 985.7 8.2
29/02:00am 8.2 4.7 5.3 82 1.3 NNW 13 17 7 9 985.5 985.5 8.2
29/01:30am 9.2 3.0 6.2 81 1.4 NW 28 41 15 22 986.1 986.1 8.2
29/01:00am 9.5 4.5 7.9 90 0.8 NW 24 35 13 19 986.3 986.3 7.4
29/12:41am 10.2 4.3 9.0 92 0.6 NNW 30 59 16 32 986.5 986.5 7.2
29/12:40am 10.2 4.7 9.2 93 0.5 NNW 28 59 15 32 986.4 986.4 7.0
29/12:30am 10.6 6.4 9.8 95 0.4 NNW 22 32 12 17 986.3 986.3 7.0
29/12:00am 11.2 6.1 9.2 87 1.0 NW 26 35 14 19 986.2 986.2 6.6
 
Date/Time
CST
Temp
°C
App
Temp
°C
Dew
Point
°C
Rel
Hum
%
Delta-T
°C
Wind Press
QNH
hPa
Press
MSL
hPa
Rain since
9am
mm
Dir  Spd
km/h
Gust
km/h
Spd
kts
Gust
kts
28/11:30pm 12.1 6.7 9.6 85 1.3 NW 28 44 15 24 985.9 985.9 6.6
28/11:12pm 12.7 7.7 10.8 88 1.0 N 28 46 15 25 985.0 985.0 6.6
28/11:00pm 12.7 7.3 11.0 89 0.9 NNE 30 41 16 22 985.4 985.4 6.6
28/10:30pm 12.5 7.4 10.6 88 1.0 NNE 28 41 15 22 985.5 985.5 6.4
28/10:25pm 12.4 6.6 10.7 89 0.9 NNE 32 46 17 25 985.8 985.8 6.4
28/10:00pm 12.6 5.7 10.3 86 1.2 NE 37 56 20 30 985.7 985.7 6.2
28/09:30pm 12.8 5.1 10.1 84 1.4 NE 41 61 22 33 986.2 986.2 5.6
28/09:00pm 12.9 3.8 9.8 81 1.6 NE 48 72 26 39 986.8 986.8 5.4
28/08:30pm 12.5 1.4 10.2 86 1.2 NE 59 87 32 47 986.3 986.3 5.4
28/08:16pm 12.5 2.7 10.2 86 1.2 NE 52 89 28 48 986.9 986.9 5.4
28/08:00pm 12.7 4.6 10.0 84 1.4 ENE 43 76 23 41 988.7 988.7 5.4
28/07:52pm 12.5 5.2 10.2 86 1.2 NE 39 59 21 32 989.3 989.3 5.4
28/07:30pm 12.4 5.1 10.3 87 1.1 NE 39 56 21 30 990.0 990.0 5.2
28/07:04pm 12.7 6.7 10.0 84 1.4 NE 32 50 17 27 991.0 991.0 2.2
28/07:00pm 12.6 7.0 10.1 85 1.3 NE 30 43 16 23 991.1 991.1 2.0
28/06:33pm 12.9 7.1 9.6 80 1.7 NE 30 48 16 26 990.8 990.8 0.6
28/06:30pm 12.9 6.7 9.4 79 1.8 NE 32 48 17 26 990.9 990.9 0.6
28/06:24pm 12.8 7.0 9.5 80 1.7 NE 30 48 16 26 991.0 991.0 0.6
28/06:00pm 12.6 5.9 9.7 82 1.5 NE 35 50 19 27 991.9 991.9 0.6
28/05:45pm 12.9 7.5 9.6 80 1.7 NE 28 48 15 26 992.5 992.5 0.6
28/05:30pm 12.6 8.4 9.9 83 1.4 NE 22 32 12 17 992.9 992.9 0.6
28/05:00pm 12.9 8.2 9.4 79 1.8 NNE 24 39 13 21 994.0 994.0 0.2
28/04:30pm 14.9 8.1 6.8 58 4.0 NNE 32 50 17 27 994.5 994.5 0.0
28/04:00pm 16.6 8.0 4.7 45 5.6 NNE 39 63 21 34 994.6 994.6 0.0
28/03:59pm 16.6 8.0 4.7 45 5.6 NNE 39 57 21 31 994.6 994.6 0.0
28/03:30pm 16.4 9.1 5.5 48 5.3 NNE 33 46 18 25 995.7 995.7 0.0
28/03:00pm 16.6 9.5 5.5 48 5.4 NNE 32 44 17 24 996.8 996.8 0.0
28/02:30pm 16.9 9.2 5.4 46 5.6 NNE 35 54 19 29 997.6 997.6 0.0
28/02:00pm 17.1 9.4 5.4 46 5.6 NNE 35 54 19 29 998.0 998.0 0.0
28/01:46pm 17.2 10.6 6.0 47 5.5 NNE 30 54 16 29 998.7 998.7 0.0
28/01:30pm 17.2 9.2 5.8 47 5.6 NNE 37 48 20 26 999.2 999.2 0.0
28/01:00pm 17.3 10.3 6.2 48 5.5 NNE 32 46 17 25 999.9 999.9 0.0
28/12:31pm 17.1 9.7 5.1 45 5.8 NNE 33 57 18 31 1000.0 1000.0 0.0
28/12:30pm 17.1 10.0 5.4 46 5.7 NNE 32 46 17 25 1000.1 1000.1 0.0
28/12:11pm 17.1 10.1 5.9 47 5.5 NE 32 50 17 27 1000.7 1000.7 0.0
28/12:00pm 17.1 9.9 5.9 47 5.5 NE 33 48 18 26 1001.2 1001.2 0.0
28/11:30am 17.0 9.4 5.7 47 5.5 NNE 35 54 19 29 1002.8 1002.9 0.0
28/11:16am 17.1 8.7 5.6 46 5.6 NNE 39 57 21 31 1003.1 1003.2 0.0
28/11:00am 16.7 9.1 5.8 48 5.3 NNE 35 52 19 28 1003.6 1003.7 0.0
28/10:30am 16.3 8.8 6.3 51 4.9 NNE 35 46 19 25 1004.7 1004.8 0.0
28/10:00am 15.7 8.9 7.0 56 4.3 NNE 32 43 17 23 1005.8 1005.8 0.0
28/09:30am 14.9 8.5 7.0 59 3.9 NNE 30 43 16 23 1007.2 1007.2 0.0
28/09:23am 14.8 8.7 6.8 58 3.9 NNE 28 46 15 25 1007.5 1007.5 0.0
28/09:00am 14.2 8.1 6.8 61 3.6 NNE 28 37 15 20 1007.9 1007.9 0.0
28/08:30am 13.1 7.4 6.7 65 3.1 NNE 26 37 14 20 1008.5 1008.5 0.0
28/08:00am 11.9 7.5 7.4 74 2.2 NNE 20 32 11 17 1009.0 1009.0 0.0
28/07:30am 10.3 5.8 6.9 79 1.6 NE 20 30 11 16 1009.3 1009.3 0.0
28/07:00am 8.9 4.9 6.5 85 1.1 NE 17 24 9 13 1009.6 1009.6 0.0
28/06:30am 7.6 3.9 6.1 90 0.7 NE 15 20 8 11 1009.9 1009.9 0.0
28/06:00am 6.4 3.3 5.5 94 0.4 NE 11 13 6 7 1010.0 1010.0 0.0
28/05:30am 6.3 2.7 5.2 93 0.5 NE 13 13 7 7 1010.2 1010.2 0.0
28/05:00am 6.5 3.0 5.4 93 0.5 NE 13 15 7 8 1010.3 1010.3 0.0
28/04:30am 6.2 3.4 5.1 93 0.5 NE 9 11 5 6 1010.3 1010.3 0.0
28/04:00am 6.2 3.0 5.1 93 0.5 NE 11 13 6 7 1010.6 1010.6 0.0
28/03:30am 6.3 3.2 5.4 94 0.4 NE 11 11 6 6 1010.7 1010.7 0.0
28/03:00am 6.5 3.3 5.1 91 0.6 NNE 11 13 6 7 1011.0 1011.0 0.0
28/02:30am 6.7 3.6 5.6 93 0.5 NE 11 13 6 7 1011.1 1011.1 0.0
28/02:00am 7.2 4.6 5.9 91 0.6 NNE 9 11 5 6 1011.3 1011.3 0.0
28/01:30am 7.4 4.4 6.1 91 0.6 N 11 13 6 7 1011.6 1011.6 0.0
28/01:00am 7.4 4.4 6.1 91 0.6 NNE 11 13 6 7 1011.9 1011.9 0.0
28/12:30am 8.0 5.1 6.5 90 0.7 N 11 15 6 8 1012.2 1012.2 0.0
28/12:00am 8.9 5.4 7.0 88 0.9 NNW 15 19 8 10 1012.4 1012.4 0.0
 
Date/Time
CST
Temp
°C
App
Temp
°C
Dew
Point
°C
Rel
Hum
%
Delta-T
°C
Wind Press
QNH
hPa
Press
MSL
hPa
Rain since
9am
mm
Dir  Spd
km/h
Gust
km/h
Spd
kts
Gust
kts
27/11:30pm 9.3 6.3 7.6 89 0.8 N 13 15 7 8 1012.3 1012.3 0.0
27/11:00pm 9.7 6.3 7.8 88 0.9 N 15 19 8 10 1012.5 1012.5 0.0
27/10:30pm 9.7 6.2 7.4 85 1.1 N 15 17 8 9 1012.7 1012.7 0.0
27/10:00pm 9.3 6.2 7.2 87 1.0 N 13 17 7 9 1012.8 1012.8 0.0
27/09:30pm 9.5 6.8 7.2 85 1.1 N 11 15 6 8 1012.9 1012.9 0.0
27/09:00pm 9.5 6.7 7.0 84 1.2 N 11 15 6 8 1012.8 1012.8 0.0
27/08:30pm 9.5 6.8 7.2 85 1.1 N 11 15 6 8 1012.9 1012.9 0.0
27/08:00pm 9.1 5.9 7.0 87 1.0 N 13 15 7 8 1013.0 1013.0 0.0
27/07:30pm 9.6 6.4 6.8 83 1.3 NNW 13 15 7 8 1013.0 1013.0 0.0
27/07:00pm 10.2 7.5 7.3 82 1.4 NNW 11 13 6 7 1012.9 1012.9 0.0
27/06:30pm 10.6 7.9 7.3 80 1.6 NNW 11 13 6 7 1012.9 1012.9 0.0
27/06:00pm 12.1 8.5 6.9 70 2.5 NNW 15 17 8 9 1012.8 1012.8 0.0

Other Formats:

Comma delimited format used in spreadsheet applications
http://www.bom.gov.au/fwo/IDS60801/IDS60801.94817.axf

JavaScript Object Notation format (JSON) in row-major order
http://www.bom.gov.au/fwo/IDS60801/IDS60801.94817.json